Dades meteomassalio
Diari Summary for Maig 18, 2017 Units:  Metric    English   Both
« Previous Day
Next Day »
Diari Semanal Mensual Anual Personalitzat
  Maxima: Minima: Mijana:
Temperatura: -17.8 °C -11.7 °C -9.2 °C
Rosada: -17.8 °C -13.9 °C -12.4 °C
Humitat: Humidity % 43 % 70 %
Velocitat del vent: 0 km/h 0 km/h 17.9 km/h
Racha vent: 0 km/h - -
Vent:- - WNW
Pressio: 0 hPa 34235.8 hPa -
Pluja: 226.06 mm    
Historical Graphs
 
 
Tabular Data for Maig 18, 2017
Time Temperature Dew Point Pressure Wind Wind Speed Wind Gust Humidity Rainfall Rate (Hourly) solar Conditions
-17.8 °C -17.8 °C 0 hPa Calm     Humidity % 0 mm SolarRadiationWatts/m^2 W/m2 Conditions
00:01 -6.4 °C -13.1 °C 34337.4 hPa Calm     46 % 0 mm 0.0 W/m2 CLR
00:06 -6.4 °C -13.3 °C 34337.4 hPa Calm     45 % 0 mm 0.0 W/m2 CLR
00:11 -6.4 °C -13.5 °C 34337.4 hPa Calm     44 % 0 mm 0.0 W/m2 CLR
00:16 -6.4 °C -13.6 °C 34337.4 hPa Calm     43 % 0 mm 0.0 W/m2 CLR
00:21 -6.3 °C -13.6 °C 34327.3 hPa Calm     43 % 0 mm 0.0 W/m2 CLR
00:26 -6.3 °C -13.6 °C 34327.3 hPa Calm     43 % 0 mm 0.0 W/m2 CLR
00:31 -6.4 °C -13.5 °C 34327.3 hPa Calm     44 % 0 mm 0.0 W/m2 CLR
00:36 -6.6 °C -13.5 °C 34327.3 hPa Calm     45 % 0 mm 0.0 W/m2 CLR
00:41 -6.8 °C -13.3 °C 34327.3 hPa Calm     47 % 0 mm 0.0 W/m2 CLR
00:44 -6.9 °C -13.3 °C 34337.4 hPa Calm     47 % 0 mm 0.0 W/m2 CLR
00:45 -6.9 °C -13.3 °C 34337.4 hPa Calm     47 % 0 mm 0.0 W/m2 CLR
00:50 -6.9 °C -13.2 °C 34327.3 hPa Calm     48 % 0 mm 0.0 W/m2 CLR
00:55 -6.9 °C -13.2 °C 34327.3 hPa Calm     48 % 0 mm 0.0 W/m2 CLR
01:00 -7.1 °C -13.5 °C 34337.4 hPa Calm     47 % 0 mm 0.0 W/m2 CLR
01:05 -7 °C -13.7 °C 34327.3 hPa Calm     46 % 0 mm 0.0 W/m2 CLR
01:10 -7 °C -13.6 °C 34327.3 hPa Calm     46 % 0 mm 0.0 W/m2 CLR
01:15 -7.1 °C -13.7 °C 34337.4 hPa Calm     46 % 0 mm 0.0 W/m2 CLR
01:20 -7 °C -13.8 °C 34337.4 hPa Calm     45 % 0 mm 0.0 W/m2 CLR
01:25 -6.9 °C -13.4 °C 34327.3 hPa Calm     47 % 0 mm 0.0 W/m2 CLR
01:30 -7.1 °C -13.2 °C 34327.3 hPa Calm     49 % 0 mm 0.0 W/m2 CLR
01:35 -7.3 °C -13.2 °C 34327.3 hPa Calm     50 % 0 mm 0.0 W/m2 CLR
01:40 -7.2 °C -13.6 °C 34313.7 hPa Calm     47 % 0 mm 0.0 W/m2 CLR
01:45 -7.2 °C -13.3 °C 34313.7 hPa Calm     49 % 0 mm 0.0 W/m2 CLR
01:50 -7.3 °C -13.8 °C 34313.7 hPa Calm     47 % 0 mm 0.0 W/m2 CLR
01:55 -7.3 °C -13.2 °C 34313.7 hPa Calm     50 % 0 mm 0.0 W/m2 CLR
02:00 -7.4 °C -13.3 °C 34313.7 hPa Calm     50 % 0 mm 0.0 W/m2 CLR
02:05 -7.5 °C -13.1 °C 34313.7 hPa Calm     52 % 0 mm 0.0 W/m2 CLR
02:10 -7.7 °C -13.6 °C 34313.7 hPa Calm     50 % 0 mm 0.0 W/m2 CLR
02:15 -7.7 °C -13.6 °C 34313.7 hPa Calm     50 % 0 mm 0.0 W/m2 CLR
02:20 -7.7 °C -13.4 °C 34313.7 hPa Calm     51 % 0 mm 0.0 W/m2 CLR
02:25 -7.7 °C -13.3 °C 34313.7 hPa Calm     52 % 0 mm 0.0 W/m2 CLR
02:30 -7.9 °C -13.3 °C 34313.7 hPa Calm     53 % 0 mm 0.0 W/m2 CLR
02:35 -7.9 °C -13.5 °C 34303.6 hPa Calm     52 % 0 mm 0.0 W/m2 CLR
02:40 -8.1 °C -13.4 °C 34303.6 hPa Calm     53 % 0 mm 0.0 W/m2 CLR
02:45 -8.2 °C -13.4 °C 34303.6 hPa Calm     54 % 0 mm 0.0 W/m2 CLR
02:50 -8.3 °C -13.5 °C 34313.7 hPa Calm     54 % 0 mm 0.0 W/m2 CLR
02:52 -8.3 °C -13.7 °C 34303.6 hPa Calm     53 % 0 mm 0.0 W/m2 CLR
02:57 -8.3 °C -13.4 °C 34303.6 hPa Calm     55 % 0 mm 0.0 W/m2 CLR
03:02 -8.3 °C -13.6 °C 34303.6 hPa Calm     54 % 0 mm 0.0 W/m2 CLR
03:07 -8.3 °C -13.7 °C 34303.6 hPa Calm     53 % 0 mm 0.0 W/m2 CLR
03:12 -8.3 °C -13.7 °C 34303.6 hPa Calm     53 % 0 mm 0.0 W/m2 CLR
03:17 -8.3 °C -13.7 °C 34303.6 hPa Calm     53 % 0 mm 0.0 W/m2 CLR
03:22 -8.2 °C -13.6 °C 34303.6 hPa Calm     53 % 0 mm 0.0 W/m2 CLR
03:27 -8.2 °C -13.4 °C 34303.6 hPa Calm     54 % 0 mm 0.0 W/m2 CLR
03:32 -8.2 °C -13.4 °C 34303.6 hPa Calm     54 % 0 mm 0.0 W/m2 CLR
03:37 -8.3 °C -13.5 °C 34303.6 hPa Calm     54 % 0 mm 0.0 W/m2 CLR
03:42 -8.3 °C -13.4 °C 34303.6 hPa Calm     55 % 0 mm 0.0 W/m2 CLR
03:47 -8.4 °C -13.1 °C 34303.6 hPa Calm     57 % 0 mm 0.0 W/m2 CLR
03:52 -8.3 °C -13.2 °C 34303.6 hPa Calm     56 % 0 mm 0.0 W/m2 CLR
03:57 -8.3 °C -13.1 °C 34303.6 hPa Calm     57 % 0 mm 0.0 W/m2 CLR
04:02 -8.4 °C -13.1 °C 34293.4 hPa Calm     57 % 0 mm 0.0 W/m2 CLR
04:07 -8.4 °C -13.2 °C 34293.4 hPa Calm     57 % 0 mm 0.0 W/m2 CLR
04:12 -8.4 °C -13.2 °C 34293.4 hPa Calm     57 % 0 mm 0.0 W/m2 CLR
04:17 -8.5 °C -13.2 °C 34293.4 hPa Calm     58 % 0 mm 0.0 W/m2 CLR
04:22 -8.6 °C -13.2 °C 34293.4 hPa Calm     58 % 0 mm 0.0 W/m2 CLR
04:27 -8.7 °C -13.4 °C 34293.4 hPa Calm     57 % 0 mm 0.0 W/m2 CLR
04:32 -8.8 °C -13.4 °C 34293.4 hPa Calm     58 % 0 mm 0.0 W/m2 CLR
04:37 -8.8 °C -13.3 °C 34293.4 hPa Calm     59 % 0 mm 0.0 W/m2 CLR
04:42 -8.9 °C -13.4 °C 34293.4 hPa Calm     59 % 0 mm 0.0 W/m2 CLR
04:47 -9.2 °C -13.3 °C 34279.9 hPa Calm     61 % 0 mm 0.0 W/m2 CLR
04:52 -9.3 °C -13.3 °C 34279.9 hPa Calm     62 % 0 mm 0.0 W/m2 CLR
04:57 -9.3 °C -13.3 °C 34279.9 hPa Calm     62 % 0 mm 0.0 W/m2 CLR
05:02 -9.3 °C -13.3 °C 34279.9 hPa Calm     62 % 0 mm 0.0 W/m2 CLR
05:07 -9.2 °C -13.2 °C 34279.9 hPa Calm     62 % 0 mm 0.0 W/m2 CLR
05:12 -9.2 °C -13.1 °C 34279.9 hPa Calm     63 % 0 mm 0.0 W/m2 CLR
05:17 -9.3 °C -13.2 °C 34279.9 hPa Calm     63 % 0 mm 0.0 W/m2 CLR
05:22 -9.4 °C -13.2 °C 34269.7 hPa Calm     64 % 0 mm 0.0 W/m2 CLR
05:27 -9.5 °C -13.4 °C 34269.7 hPa Calm     63 % 0 mm 0.0 W/m2 CLR
05:32 -9.6 °C -13.3 °C 34269.7 hPa Calm     64 % 0 mm 0.0 W/m2 CLR
05:37 -9.7 °C -13.3 °C 34269.7 hPa Calm     65 % 0 mm 0.0 W/m2 CLR
05:42 -9.9 °C -13.4 °C 34269.7 hPa Calm     66 % 0 mm 0.0 W/m2 CLR
05:47 -9.9 °C -13.3 °C 34269.7 hPa Calm     67 % 0 mm 0.0 W/m2 CLR
05:52 -9.9 °C -13.3 °C 34269.7 hPa Calm     67 % 0 mm 0.0 W/m2 CLR
05:57 -9.9 °C -13.3 °C 34269.7 hPa Calm     67 % 0 mm 0.0 W/m2 CLR
06:02 -9.9 °C -13.3 °C 34269.7 hPa Calm     67 % 0 mm 0.0 W/m2 CLR
06:07 -10 °C -13.4 °C 34269.7 hPa Calm     67 % 0 mm 0.0 W/m2 CLR
06:12 -10 °C -13.4 °C 34269.7 hPa Calm     67 % 0 mm 0.0 W/m2 CLR
06:17 -10.1 °C -13.4 °C 34256.2 hPa Calm     67 % 0 mm 0.0 W/m2 CLR
06:22 -10.1 °C -13.4 °C 34269.7 hPa Calm     68 % 0 mm 0.0 W/m2 CLR
06:27 -10.2 °C -13.4 °C 34269.7 hPa Calm     68 % 0 mm 0.0 W/m2 CLR
06:32 -10.2 °C -13.4 °C 34269.7 hPa Calm     68 % 0 mm 0.0 W/m2 OVC
06:37 -10.3 °C -13.4 °C 34269.7 hPa Calm     69 % 0 mm 0.0 W/m2 OVC
06:42 -10.3 °C -13.4 °C 34269.7 hPa Calm     69 % 0 mm 5.0 W/m2 OVC
06:47 -10.4 °C -13.4 °C 34269.7 hPa Calm     70 % 0 mm 9.0 W/m2 BKN
06:52 -10.4 °C -13.4 °C 34269.7 hPa Calm     70 % 0 mm 12.0 W/m2 BKN
06:57 -10.5 °C -13.4 °C 34269.7 hPa Calm     71 % 0 mm 19.0 W/m2 BKN
07:02 -10.6 °C -13.4 °C 34269.7 hPa Calm     71 % 0 mm 26.0 W/m2 BKN
07:07 -10.6 °C -13.3 °C 34269.7 hPa Calm     72 % 0 mm 28.0 W/m2 BKN
07:12 -10.5 °C -13.3 °C 34269.7 hPa Calm     72 % 0 mm 33.0 W/m2 BKN
07:17 -10.5 °C -13.2 °C 34269.7 hPa Calm     72 % 0 mm 40.0 W/m2 BKN
07:22 -10.4 °C -13.3 °C 34269.7 hPa Calm     71 % 0 mm 42.0 W/m2 BKN
07:27 -10.3 °C -13.3 °C 34269.7 hPa Calm     70 % 0 mm 56.0 W/m2 SCT
07:33 -10.2 °C -13.3 °C 34269.7 hPa Calm     69 % 0 mm 69.0 W/m2 FEW
07:38 -10.1 °C -13.2 °C 34269.7 hPa Calm     69 % 0 mm 81.0 W/m2 FEW
07:43 -9.9 °C -13.3 °C 34269.7 hPa Calm     67 % 0 mm 100.0 W/m2 FEW
07:48 -9.8 °C -13.3 °C 34269.7 hPa Calm     66 % 0 mm 139.0 W/m2 CLR
07:53 -9.7 °C -13.2 °C 34269.7 hPa Calm     66 % 0 mm 176.0 W/m2 CLR
07:58 -9.4 °C -12.9 °C 34269.7 hPa Calm     66 % 0 mm 214.0 W/m2 CLR
08:03 -9.2 °C -12.9 °C 34269.7 hPa Calm     64 % 0 mm 221.0 W/m2 CLR
08:08 -8.9 °C -12.9 °C 34269.7 hPa Calm     63 % 0 mm 221.0 W/m2 CLR
08:13 -8.8 °C -12.8 °C 34269.7 hPa Calm     62 % 0 mm 221.0 W/m2 CLR
08:18 -8.7 °C -12.8 °C 34269.7 hPa Calm     61 % 0 mm 193.0 W/m2 CLR
08:23 -8.5 °C -12.8 °C 34269.7 hPa Calm     60 % 0 mm 149.0 W/m2 CLR
08:28 -8.4 °C -12.8 °C 34269.7 hPa Calm     60 % 0 mm 76.0 W/m2 CLR
08:33 -8.3 °C -12.7 °C 34269.7 hPa Calm     60 % 0 mm 178.0 W/m2 CLR
08:38 -8.3 °C -12.7 °C 34269.7 hPa Calm     59 % 0 mm 290.0 W/m2 CLR
08:43 -8.1 °C -12.6 °C 34269.7 hPa Calm     59 % 0 mm 360.0 W/m2 CLR
08:48 -7.7 °C -12.6 °C 34269.7 hPa Calm     57 % 0 mm 345.0 W/m2 CLR
08:53 -7.5 °C -12.4 °C 34256.2 hPa Calm     56 % 0 mm 309.0 W/m2 CLR
08:58 -7.4 °C -12.5 °C 34256.2 hPa Calm     55 % 0 mm 381.0 W/m2 CLR
09:03 -7.3 °C -12.4 °C 34256.2 hPa Calm     55 % 0 mm 418.0 W/m2 CLR
09:08 -7.1 °C -12.2 °C 34256.2 hPa Calm     55 % 0 mm 468.0 W/m2 CLR
09:13 -7.1 °C -12.3 °C 34256.2 hPa Calm     54 % 0 mm 162.0 W/m2 CLR
09:18 -7.2 °C -12.3 °C 34256.2 hPa Calm     55 % 0 mm 174.0 W/m2 CLR
09:23 -7.3 °C -12.3 °C 34256.2 hPa Calm     56 % 0 mm 257.0 W/m2 CLR
09:28 -7.2 °C -12.1 °C 34246 hPa Calm     57 % 0 mm 345.0 W/m2 CLR
09:33 -7.1 °C -11.9 °C 34246 hPa Calm     57 % 0 mm 281.0 W/m2 CLR
09:38 -6.9 °C -11.6 °C 34246 hPa Calm     58 % 0 mm 557.0 W/m2 CLR
09:43 -6.8 °C -11.6 °C 34246 hPa Calm     57 % 0 mm 172.0 W/m2 CLR
09:48 -6.8 °C -11.8 °C 34246 hPa Calm     56 % 0 mm 318.0 W/m2 CLR
09:53 -6.7 °C -11.7 °C 34246 hPa Calm     56 % 0 mm 563.0 W/m2 CLR
09:58 -6.5 °C -11.8 °C 34235.8 hPa Calm     54 % 0 mm 366.0 W/m2 CLR
10:03 -6.3 °C -11.7 °C 34235.8 hPa Calm     54 % 0 mm 552.0 W/m2 CLR
10:08 -6.2 °C -11.7 °C 34235.8 hPa Calm     53 % 0 mm 578.0 W/m2 CLR
10:13 -6.1 °C -11.6 °C 34235.8 hPa Calm     53 % 0 mm 605.0 W/m2 CLR
10:18 -5.7 °C -11.6 °C 34246 hPa Calm     51 % 0 mm 617.0 W/m2 CLR
10:23 -5.6 °C -11.6 °C 34246 hPa Calm     50 % 0 mm 559.0 W/m2 CLR
10:24 -5.6 °C -11.5 °C 34246 hPa Calm     51 % 0 mm 559.0 W/m2 CLR
10:29 -5.6 °C -11.6 °C 34246 hPa NNE 5.1 km/h 5.1 km/h 50 % 0 mm 234.0 W/m2 CLR
10:34 -5.5 °C -11.4 °C 34246 hPa Calm     51 % 0 mm 659.0 W/m2 CLR
10:39 -5.3 °C -11.6 °C 34246 hPa Calm     49 % 0 mm 596.0 W/m2 CLR
10:44 -5.2 °C -11.2 °C 34246 hPa ENE 20.9 km/h 20.9 km/h 51 % 0 mm 705.0 W/m2 CLR
10:49 -5.2 °C -11.1 °C 34235.8 hPa ENE 15 km/h 15 km/h 51 % 0 mm 874.0 W/m2 CLR
10:54 -5.2 °C -11.5 °C 34235.8 hPa East 20.9 km/h 20.9 km/h 49 % 0 mm 316.0 W/m2 CLR
10:59 -5.4 °C -11.2 °C 34246 hPa North 15.6 km/h 15.6 km/h 52 % 0 mm 318.0 W/m2 CLR
11:04 -5.5 °C -11.1 °C 34256.2 hPa NNW 20.9 km/h 20.9 km/h 53 % 0 mm 355.0 W/m2 CLR
11:09 -5.6 °C -11.3 °C 34256.2 hPa NNW 29.8 km/h 29.8 km/h 52 % 0 mm 297.0 W/m2 CLR
11:14 -5.9 °C -11.3 °C 34269.7 hPa NW 38.8 km/h 38.8 km/h 54 % 0 mm 258.0 W/m2 CLR
11:19 -6.3 °C -11.3 °C 34269.7 hPa NW 47.6 km/h 47.6 km/h 57 % 0 mm 485.0 W/m2 CLR
11:24 -6.2 °C -10.9 °C 34269.7 hPa North 47.6 km/h 47.6 km/h 58 % 0 mm 912.0 W/m2 CLR
11:29 -5.9 °C -10.9 °C 34279.9 hPa North 50.7 km/h 50.7 km/h 56 % 0 mm 983.0 W/m2 CLR
11:34 -5.7 °C -10.9 °C 34279.9 hPa NNW 49.2 km/h 49.2 km/h 55 % 0 mm 991.0 W/m2 CLR
11:39 -5.8 °C -10.6 °C 34293.4 hPa NNW 49.2 km/h 49.2 km/h 58 % 0 mm 422.0 W/m2 CLR
11:40 -5.9 °C -10.5 °C 34293.4 hPa NNW 38.8 km/h 39.1 km/h 59 % 0 mm 436.0 W/m2 CLR
11:45 -6.3 °C -10.7 °C 34293.4 hPa NNW 59.5 km/h 59.5 km/h 60 % 0 mm 306.0 W/m2 CLR
11:50 -6.7 °C -10.6 °C 34303.6 hPa NNW 59.5 km/h 59.5 km/h 64 % 0 mm 364.0 W/m2 CLR
11:55 -6.9 °C -10.3 °C 34303.6 hPa NNW 53.6 km/h 53.6 km/h 68 % 0 mm 355.0 W/m2 CLR
12:00 -7.1 °C -10.5 °C 34303.6 hPa NNW 35.7 km/h 35.7 km/h 67 % 0 mm 292.0 W/m2 CLR
12:05 -6.9 °C -10.4 °C 34303.6 hPa NNW 29.8 km/h 29.8 km/h 67 % 0 mm 364.0 W/m2 CLR
12:10 -6.8 °C -10.2 °C 34303.6 hPa NNW 38.8 km/h 38.8 km/h 68 % 0 mm 520.0 W/m2 CLR
12:15 -6.8 °C -10.3 °C 34313.7 hPa NW 32.8 km/h 32.8 km/h 67 % 0 mm 388.0 W/m2 CLR
12:20 -6.8 °C -10.4 °C 34313.7 hPa NNW 41.7 km/h 41.7 km/h 66 % 0 mm 248.0 W/m2 CLR
12:25 -7 °C -10.4 °C 34313.7 hPa NW 50.7 km/h 50.7 km/h 67 % 0 mm 172.0 W/m2 CLR
12:30 -7.2 °C -10.7 °C 34303.6 hPa NNW 41.7 km/h 41.7 km/h 67 % 0 mm 114.0 W/m2 CLR
12:35 -7.3 °C -10.6 °C 34313.7 hPa NW 38.8 km/h 38.8 km/h 69 % 0 mm 116.0 W/m2 CLR
12:40 -7.6 °C -10.3 °C 34327.3 hPa NW 50.7 km/h 50.7 km/h 73 % 0 mm 107.0 W/m2 CLR
12:45 -7.7 °C -10.4 °C 34337.4 hPa NW 46.7 km/h 46.7 km/h 73 % 0 mm 83.0 W/m2 CLR
12:50 -7.9 °C -10.7 °C 34337.4 hPa NW 51.8 km/h 51.8 km/h 73 % 0 mm 56.0 W/m2 CLR
12:55 -8.1 °C -10.8 °C 34337.4 hPa WNW 50.7 km/h 50.7 km/h 73 % 0 mm 40.0 W/m2 SCT
13:00 -8.3 °C -10.5 °C 34347.6 hPa NW 38.8 km/h 38.8 km/h 77 % 0 mm 25.0 W/m2 BKN
13:05 -8.5 °C -10.4 °C 34347.6 hPa WNW 29.8 km/h 29.8 km/h 80 % 0 mm 21.0 W/m2 BKN
13:10 -8.7 °C -10.4 °C 34361.1 hPa WNW 35.7 km/h 35.7 km/h 82 % 0 mm 21.0 W/m2 BKN
13:11 -8.7 °C -10.4 °C 34361.1 hPa WNW 32.8 km/h 32.8 km/h 82 % 7.62 mm 23.0 W/m2 RA
13:16 -8.8 °C -10.3 °C 34361.1 hPa WNW 20.9 km/h 20.9 km/h 84 % 12.7 mm 28.0 W/m2 RA
13:21 -8.9 °C -10.2 °C 34347.6 hPa Calm     86 % 12.7 mm 44.0 W/m2 RA
13:26 -9 °C -10.3 °C 34327.3 hPa NNE 18.2 km/h 18.2 km/h 86 % 20.32 mm 121.0 W/m2 RA
13:31 -9 °C -10.2 °C 34327.3 hPa Calm     87 % 33.02 mm 200.0 W/m2 RA
13:36 -9 °C -10.2 °C 34327.3 hPa Calm     87 % 38.1 mm 200.0 W/m2 RA
13:46 -9 °C -10.1 °C 34347.6 hPa Calm     88 % 45.72 mm 49.0 W/m2 RA
13:51 -9 °C -10.1 °C 34347.6 hPa West 23.8 km/h 23.8 km/h 88 % 45.72 mm 47.0 W/m2 SCT
13:56 -9.1 °C -10.1 °C 34337.4 hPa Calm     89 % 58.42 mm 33.0 W/m2 RA
14:01 -9.1 °C -10.1 °C 34313.7 hPa Calm     89 % 58.42 mm 37.0 W/m2 BKN
14:06 -9.1 °C -10.1 °C 34313.7 hPa Calm     89 % 63.5 mm 33.0 W/m2 RA
14:11 -9.2 °C -10.2 °C 34313.7 hPa Calm     89 % 58.42 mm 30.0 W/m2 BKN
14:16 -9.2 °C -10.2 °C 34313.7 hPa Calm     89 % 71.12 mm 30.0 W/m2 RA
14:21 -9.2 °C -10.2 °C 34303.6 hPa SE 3.1 km/h   89 % 71.12 mm 39.0 W/m2 RA
14:26 -9.2 °C -10.2 °C 34293.4 hPa SE 9 km/h   89 % 63.5 mm 53.0 W/m2 BKN
14:31 -9.2 °C -10.1 °C 34293.4 hPa Calm     90 % 58.42 mm 51.0 W/m2 RA
14:36 -9.2 °C -10.1 °C 34293.4 hPa Calm     90 % 58.42 mm 54.0 W/m2 SCT
14:41 -9.3 °C -10.2 °C 34293.4 hPa Calm     90 % 50.8 mm 69.0 W/m2 SCT
14:46 -9.2 °C -10.1 °C 34293.4 hPa Calm     90 % 45.72 mm 83.0 W/m2 FEW
14:51 -9.2 °C -10.1 °C 34303.6 hPa Calm     90 % 50.8 mm 72.0 W/m2 RA
14:57 -9.2 °C -10.1 °C 34303.6 hPa Calm     90 % 38.1 mm 60.0 W/m2 FEW
15:02 -9.2 °C -10.1 °C 34303.6 hPa Calm     90 % 38.1 mm 49.0 W/m2 SCT
15:07 -9.3 °C -10.2 °C 34303.6 hPa Calm     90 % 33.02 mm 83.0 W/m2 SCT
15:08 -9.3 °C -10.2 °C 34303.6 hPa Calm     90 % 33.02 mm 88.0 W/m2 SCT
15:13 -9.3 °C -10.2 °C 34303.6 hPa Calm     90 % 25.4 mm 109.0 W/m2 FEW
15:18 -9.2 °C -10.1 °C 34293.4 hPa Calm     90 % 12.7 mm 84.0 W/m2 CLR
15:23 -9.2 °C -10.1 °C 34279.9 hPa Calm     90 % 12.7 mm 74.0 W/m2 CLR
15:28 -9.2 °C -10.1 °C 34293.4 hPa Calm     90 % 12.7 mm 84.0 W/m2 RA
15:33 -9.2 °C -10.1 °C 34293.4 hPa North 9 km/h 9 km/h 90 % 12.7 mm 47.0 W/m2 RA
15:38 -9.2 °C -10.1 °C 34279.9 hPa NNE 11.9 km/h 11.9 km/h 90 % 12.7 mm 47.0 W/m2 SCT
15:43 -9.2 °C -10.1 °C 34303.6 hPa North 9 km/h 9 km/h 90 % 25.4 mm 79.0 W/m2 RA
15:48 -9.2 °C -10.1 °C 34293.4 hPa Calm     91 % 25.4 mm 237.0 W/m2 RA
15:53 -9.1 °C -9.9 °C 34303.6 hPa Calm     91 % 25.4 mm 225.0 W/m2 CLR
15:59 -9.1 °C -9.8 °C 34313.7 hPa NNW 20.9 km/h 20.9 km/h 91 % 33.02 mm 137.0 W/m2 RA
16:04 -9.2 °C -10.1 °C 34313.7 hPa North 31.1 km/h 31.1 km/h 90 % 33.02 mm 334.0 W/m2 CLR
16:09 -10.1 °C -11.6 °C 34347.6 hPa NW 89.3 km/h 89.3 km/h 84 % 33.02 mm 54.0 W/m2 CLR
16:14 -10.8 °C -11.9 °C 34361.1 hPa NW 68.6 km/h 68.6 km/h 88 % 33.02 mm 49.0 W/m2 FEW
16:19 -11.1 °C -12.2 °C 34361.1 hPa NNW 65.5 km/h 65.5 km/h 88 % 33.02 mm 42.0 W/m2 SCT
16:24 -11.2 °C -12.3 °C 34347.6 hPa NW 65.5 km/h 65.5 km/h 88 % 33.02 mm 70.0 W/m2 SCT
16:29 -11.3 °C -12.3 °C 34361.1 hPa NW 56.6 km/h 56.6 km/h 89 % 25.4 mm 67.0 W/m2 SCT
16:34 -11.3 °C -12.3 °C 34361.1 hPa NNW 53.6 km/h 53.6 km/h 89 % 20.32 mm 67.0 W/m2 FEW
16:39 -11.3 °C -12.2 °C 34347.6 hPa NW 50.7 km/h 50.7 km/h 90 % 20.32 mm 109.0 W/m2 FEW
16:44 -11.3 °C -12.2 °C 34361.1 hPa NW 59.5 km/h 59.5 km/h 90 % 12.7 mm 111.0 W/m2 CLR
16:49 -11.3 °C -12.2 °C 34361.1 hPa NNW 41.7 km/h 41.7 km/h 90 % 7.62 mm 83.0 W/m2 CLR
16:54 -11.3 °C -12.2 °C 34361.1 hPa NW 38.8 km/h 38.8 km/h 90 % 7.62 mm 83.0 W/m2 CLR
16:59 -11.3 °C -12.3 °C 34371.3 hPa WNW 41.7 km/h 41.7 km/h 90 % 0 mm 91.0 W/m2 CLR
17:04 -11.3 °C -12.2 °C 34371.3 hPa NW 29.8 km/h 29.8 km/h 90 % 0 mm 100.0 W/m2 CLR
17:09 -11.3 °C -12.2 °C 34384.8 hPa WSW 35.7 km/h 35.7 km/h 90 % 0 mm 47.0 W/m2 CLR
17:14 -11.3 °C -12.3 °C 34395 hPa West 41.7 km/h 41.7 km/h 89 % 0 mm 18.0 W/m2 SCT
17:19 -11.3 °C -12.3 °C 34395 hPa West 50.7 km/h 50.7 km/h 90 % 0 mm 28.0 W/m2 BKN
17:24 -11.4 °C -12.3 °C 34395 hPa WNW 47.6 km/h 47.6 km/h 90 % 7.62 mm 26.0 W/m2 RA
17:29 -11.5 °C -12.3 °C 34395 hPa West 50.7 km/h 50.7 km/h 90 % 12.7 mm 30.0 W/m2 RA
17:34 -11.5 °C -12.4 °C 34384.8 hPa WNW 41.7 km/h 41.7 km/h 90 % 20.32 mm 37.0 W/m2 RA
17:39 -11.5 °C -12.3 °C 34395 hPa West 36.2 km/h 36.2 km/h 91 % 25.4 mm 30.0 W/m2 RA
17:44 -11.6 °C -12.3 °C 34384.8 hPa NW 32.8 km/h 32.8 km/h 91 % 38.1 mm 40.0 W/m2 RA
17:49 -11.6 °C -12.3 °C 34384.8 hPa WNW 41.7 km/h 41.7 km/h 91 % 50.8 mm 51.0 W/m2 RA
17:54 -11.6 °C -12.3 °C 34384.8 hPa WNW 44.7 km/h 44.7 km/h 91 % 58.42 mm 49.0 W/m2 RA
17:59 -11.6 °C -12.3 °C 34395 hPa WNW 32.8 km/h 32.8 km/h 91 % 63.5 mm 62.0 W/m2 RA
18:04 -11.6 °C -12.3 °C 34395 hPa West 29.8 km/h 29.8 km/h 91 % 76.2 mm 72.0 W/m2 RA
18:09 -11.6 °C -12.3 °C 34395 hPa WNW 20.9 km/h 20.9 km/h 92 % 83.82 mm 70.0 W/m2 RA
18:14 -11.6 °C -12.3 °C 34395 hPa WNW 23.3 km/h 23.3 km/h 92 % 91.44 mm 42.0 W/m2 RA
18:19 -11.6 °C -12.4 °C 34405.1 hPa WNW 29.8 km/h 29.8 km/h 91 % 96.52 mm 76.0 W/m2 RA
18:24 -11.6 °C -12.4 °C 34405.1 hPa NW 41.4 km/h 41.4 km/h 91 % 91.44 mm 42.0 W/m2 SCT
18:29 -11.6 °C -12.4 °C 34418.7 hPa NW 35.7 km/h 35.7 km/h 91 % 83.82 mm 60.0 W/m2 SCT
18:34 -11.6 °C -12.4 °C 34405.1 hPa NW 38.8 km/h 38.8 km/h 91 % 76.2 mm 77.0 W/m2 RA
18:39 -11.6 °C -12.4 °C 34405.1 hPa NNW 29.8 km/h 29.8 km/h 91 % 71.12 mm 70.0 W/m2 FEW
18:44 -11.6 °C -12.4 °C 34405.1 hPa NW 35.7 km/h 35.7 km/h 91 % 58.42 mm 84.0 W/m2 FEW
18:49 -11.6 °C -12.3 °C 34405.1 hPa NNW 33.6 km/h 33.6 km/h 91 % 50.8 mm 118.0 W/m2 FEW
18:54 -11.5 °C -12.3 °C 34418.7 hPa WNW 35.7 km/h 35.7 km/h 91 % 38.1 mm 86.0 W/m2 CLR
18:59 -11.5 °C -12.3 °C 34418.7 hPa NW 44.7 km/h 44.7 km/h 90 % 38.1 mm 128.0 W/m2 CLR
19:04 -11.4 °C -12.3 °C 34418.7 hPa NW 29.8 km/h 29.8 km/h 90 % 25.4 mm 223.0 W/m2 CLR
19:09 -11.3 °C -12.3 °C 34418.7 hPa WNW 35.7 km/h 35.7 km/h 90 % 12.7 mm 232.0 W/m2 CLR
19:14 -11.3 °C -12.3 °C 34428.8 hPa NW 38.8 km/h 38.8 km/h 89 % 12.7 mm 102.0 W/m2 CLR
19:20 -11.3 °C -12.3 °C 34428.8 hPa WNW 32.8 km/h 32.8 km/h 89 % 7.62 mm 91.0 W/m2 CLR
19:25 -11.4 °C -12.4 °C 34418.7 hPa NNW 53.6 km/h 53.6 km/h 88 % 7.62 mm 84.0 W/m2 CLR
19:30 -11.4 °C -12.5 °C 34418.7 hPa WNW 41.7 km/h 41.7 km/h 88 % 7.62 mm 98.0 W/m2 CLR
19:35 -11.4 °C -12.5 °C 34428.8 hPa West 29.8 km/h 29.8 km/h 88 % 0 mm 146.0 W/m2 CLR
19:40 -11.4 °C -12.6 °C 34418.7 hPa WNW 33.6 km/h 33.6 km/h 87 % 0 mm 141.0 W/m2 CLR
19:45 -11.3 °C -12.4 °C 34418.7 hPa WNW 32.8 km/h 32.8 km/h 88 % 0 mm 123.0 W/m2 CLR
19:50 -11.3 °C -12.4 °C 34418.7 hPa WNW 41.7 km/h 41.7 km/h 87 % 0 mm 123.0 W/m2 CLR
19:55 -11.3 °C -12.6 °C 34418.7 hPa West 41.7 km/h 41.7 km/h 86 % 0 mm 65.0 W/m2 CLR
20:00 -11.2 °C -12.5 °C 34428.8 hPa West 44.7 km/h 44.7 km/h 86 % 0 mm 158.0 W/m2 CLR
20:05 -11.2 °C -12.6 °C 34428.8 hPa WNW 38.8 km/h 38.8 km/h 85 % 0 mm 127.0 W/m2 CLR
20:10 -11.1 °C -12.4 °C 34428.8 hPa WNW 35.7 km/h 35.7 km/h 85 % 0 mm 111.0 W/m2 CLR
20:15 -11.1 °C -12.4 °C 34428.8 hPa WNW 29.8 km/h 29.8 km/h 85 % 0 mm 39.0 W/m2 BKN
20:20 -11.1 °C -12.4 °C 34428.8 hPa West 35.7 km/h 35.7 km/h 85 % 0 mm 79.0 W/m2 BKN
20:25 -11 °C -12.4 °C 34428.8 hPa West 28.5 km/h 28.5 km/h 84 % 0 mm 65.0 W/m2 FEW
20:30 -11 °C -12.6 °C 34442.4 hPa WNW 32.8 km/h 32.8 km/h 83 % 0 mm 23.0 W/m2 BKN
20:35 -11.1 °C -12.7 °C 34442.4 hPa WNW 51.8 km/h 51.8 km/h 82 % 0 mm 25.0 W/m2 BKN
20:40 -11.1 °C -12.7 °C 34442.4 hPa WNW 47.6 km/h 47.6 km/h 82 % 0 mm 30.0 W/m2 BKN
20:45 -11.1 °C -12.7 °C 34442.4 hPa West 38.8 km/h 38.8 km/h 82 % 0 mm 23.0 W/m2 BKN
20:50 -11.1 °C -12.9 °C 34428.8 hPa WNW 49.2 km/h 49.2 km/h 81 % 0 mm 16.0 W/m2 BKN
20:55 -11.2 °C -12.9 °C 34442.4 hPa WNW 41.7 km/h 41.7 km/h 81 % 0 mm 12.0 W/m2 BKN
21:00 -11.3 °C -12.9 °C 34442.4 hPa WNW 49.2 km/h 49.2 km/h 82 % 0 mm 11.0 W/m2 BKN
21:05 -11.3 °C -13.1 °C 34442.4 hPa WNW 44.7 km/h 44.7 km/h 81 % 0 mm 9.0 W/m2 BKN
21:10 -11.3 °C -13.1 °C 34442.4 hPa WNW 50.7 km/h 50.7 km/h 81 % 0 mm 5.0 W/m2 BKN
21:15 -11.3 °C -13.1 °C 34442.4 hPa WNW 50.7 km/h 50.7 km/h 81 % 0 mm 0.0 W/m2 OVC
21:20 -11.3 °C -13.1 °C 34442.4 hPa WNW 50.7 km/h 50.7 km/h 81 % 0 mm 0.0 W/m2 OVC
21:25 -11.4 °C -13.2 °C 34452.6 hPa WNW 44.7 km/h 44.7 km/h 81 % 0 mm 0.0 W/m2 CLR
21:30 -11.4 °C -13.2 °C 34462.7 hPa WNW 35.7 km/h 35.7 km/h 81 % 0 mm 0.0 W/m2 CLR
21:35 -11.5 °C -13.3 °C 34462.7 hPa NW 56.6 km/h 56.6 km/h 80 % 0 mm 0.0 W/m2 CLR
21:40 -11.5 °C -13.4 °C 34462.7 hPa WNW 41.7 km/h 41.7 km/h 79 % 0 mm 0.0 W/m2 CLR
21:45 -11.6 °C -13.5 °C 34476.3 hPa WNW 38.8 km/h 38.8 km/h 79 % 0 mm 0.0 W/m2 CLR
21:50 -11.6 °C -13.5 °C 34476.3 hPa WNW 36.2 km/h 36.2 km/h 79 % 0 mm 0.0 W/m2 CLR
21:55 -11.6 °C -13.5 °C 34476.3 hPa WNW 29.8 km/h 29.8 km/h 79 % 0 mm 0.0 W/m2 CLR
22:00 -11.6 °C -13.5 °C 34476.3 hPa West 35.7 km/h 35.7 km/h 79 % 0 mm 0.0 W/m2 CLR
22:05 -11.6 °C -13.5 °C 34486.4 hPa West 29.8 km/h 29.8 km/h 79 % 0 mm 0.0 W/m2 CLR
22:10 -11.6 °C -13.6 °C 34486.4 hPa West 29.8 km/h 29.8 km/h 79 % 0 mm 0.0 W/m2 CLR
22:15 -11.6 °C -13.6 °C 34486.4 hPa West 32.8 km/h 32.8 km/h 79 % 0 mm 0.0 W/m2 CLR
22:20 -11.6 °C -13.7 °C 34486.4 hPa WNW 36.2 km/h 36.2 km/h 78 % 0 mm 0.0 W/m2 CLR
22:25 -11.6 °C -13.7 °C 34486.4 hPa West 33.6 km/h 33.6 km/h 78 % 0 mm 0.0 W/m2 CLR
22:30 -11.6 °C -13.8 °C 34486.4 hPa West 38.8 km/h 38.8 km/h 77 % 0 mm 0.0 W/m2 CLR
22:35 -11.6 °C -13.8 °C 34486.4 hPa NW 44.7 km/h 44.7 km/h 77 % 0 mm 0.0 W/m2 CLR
22:40 -11.6 °C -13.8 °C 34486.4 hPa WNW 36.2 km/h 36.2 km/h 77 % 0 mm 0.0 W/m2 CLR
22:45 -11.6 °C -13.8 °C 34486.4 hPa WNW 44.1 km/h 44.1 km/h 77 % 0 mm 0.0 W/m2 CLR
22:50 -11.6 °C -13.8 °C 34486.4 hPa WNW 35.7 km/h 35.7 km/h 76 % 0 mm 0.0 W/m2 CLR
22:55 -11.6 °C -13.8 °C 34496.6 hPa WNW 38.8 km/h 38.8 km/h 76 % 0 mm 0.0 W/m2 CLR
23:00 -11.7 °C -13.8 °C 34496.6 hPa WNW 26.9 km/h 26.9 km/h 77 % 0 mm 0.0 W/m2 CLR
23:05 -11.7 °C -13.8 °C 34496.6 hPa WNW 35.7 km/h 35.7 km/h 77 % 0 mm 0.0 W/m2 CLR
23:10 -11.7 °C -13.8 °C 34496.6 hPa WNW 23.8 km/h 23.8 km/h 77 % 0 mm 0.0 W/m2 CLR
23:15 -11.7 °C -13.8 °C 34496.6 hPa West 29.8 km/h 29.8 km/h 77 % 0 mm 0.0 W/m2 CLR
23:20 -11.7 °C -13.8 °C 34486.4 hPa NW 56.6 km/h 56.6 km/h 77 % 0 mm 0.0 W/m2 CLR
23:25 -11.6 °C -13.9 °C 34486.4 hPa West 35.7 km/h 35.7 km/h 76 % 0 mm 0.0 W/m2 CLR
23:30 -11.7 °C -13.8 °C 34486.4 hPa WNW 29.8 km/h 29.8 km/h 77 % 0 mm 0.0 W/m2 CLR
23:35 -11.7 °C -13.8 °C 34486.4 hPa WNW 35.7 km/h 35.7 km/h 77 % 0 mm 0.0 W/m2 CLR
23:40 -11.7 °C -13.8 °C 34486.4 hPa West 38.8 km/h 38.8 km/h 77 % 0 mm 0.0 W/m2 CLR
23:45 -11.7 °C -13.8 °C 34486.4 hPa WNW 41.7 km/h 41.7 km/h 77 % 0 mm 0.0 W/m2 CLR
23:50 -11.7 °C -13.8 °C 34486.4 hPa WNW 41.7 km/h 41.7 km/h 77 % 0 mm 0.0 W/m2 CLR
23:55 -11.7 °C -13.8 °C 34486.4 hPa WNW 36.2 km/h 36.2 km/h 77 % 0 mm 0.0 W/m2 CLR
Lo Temps de Massalio
Compliments of Weather Underground - 1.25 mb